createdAt,value
2022-09-18T00:02:37.796Z,97098.66
2022-09-18T00:05:26.209Z,97102.72
2022-09-18T00:08:24.963Z,97086.91
2022-09-18T00:11:16.105Z,97086.22
2022-09-18T00:14:07.219Z,97089.97
2022-09-18T00:16:55.761Z,97091.41
2022-09-18T00:19:44.156Z,97091.97
2022-09-18T00:22:32.426Z,97089.94
2022-09-18T00:25:22.166Z,97078.19
2022-09-18T00:28:16.683Z,97087.66
2022-09-18T00:31:06.416Z,97096.69
2022-09-18T00:34:02.694Z,97081.44
2022-09-18T00:36:51.034Z,97090.63
2022-09-18T00:39:45.534Z,97079.13
2022-09-18T00:42:35.209Z,97078.38
2022-09-18T00:45:29.596Z,97100.13
2022-09-18T00:48:18.791Z,97087.16
2022-09-18T00:51:07.670Z,97091.41
2022-09-18T00:54:07.931Z,97084.91
2022-09-18T00:57:01.463Z,97101.91
2022-09-18T00:59:53.213Z,97083.19
2022-09-18T01:02:43.057Z,97094.91
2022-09-18T01:05:59.144Z,97083.13
2022-09-18T01:09:01.986Z,97094.59
2022-09-18T01:11:55.648Z,97086.56
2022-09-18T01:14:54.760Z,97059.09
2022-09-18T01:17:51.844Z,97089.84
2022-09-18T01:20:57.990Z,97088.56
2022-09-18T01:24:10.361Z,97086.63
2022-09-18T01:27:02.560Z,97080.09
2022-09-18T01:30:06.886Z,97076.31
2022-09-18T01:32:59.370Z,97083.66
2022-09-18T01:35:53.802Z,97077.03
2022-09-18T01:38:49.582Z,97082.31
2022-09-18T01:41:41.534Z,97085.59
2022-09-18T01:44:34.704Z,97077.88
2022-09-18T01:47:31.924Z,97090.63
2022-09-18T01:50:21.051Z,97087.84
2022-09-18T01:53:22.330Z,97096.91
2022-09-18T01:56:15.122Z,97099.69
2022-09-18T01:59:08.699Z,97103.13
2022-09-18T02:02:11.885Z,97102.59
2022-09-18T02:05:07.643Z,97098.63
2022-09-18T02:08:09.245Z,97095.09
2022-09-18T02:11:04.097Z,97105.38
2022-09-18T02:13:59.483Z,97106.84
2022-09-18T02:17:04.485Z,97114.38
2022-09-18T02:20:00.294Z,97109.88
2022-09-18T02:22:54.123Z,97107.19
2022-09-18T02:25:45.849Z,97099.91
2022-09-18T02:28:37.362Z,97106.69
2022-09-18T02:31:26.075Z,97107.66
2022-09-18T02:34:23.576Z,97113.47
2022-09-18T02:37:32.092Z,97112.81
2022-09-18T02:40:31.646Z,97118.09
2022-09-18T02:43:36.843Z,97123.34
2022-09-18T02:46:38.033Z,97109.91
2022-09-18T02:49:36.995Z,97115.13
2022-09-18T02:52:31.931Z,97136.81
2022-09-18T02:55:28.439Z,97122.53
2022-09-18T02:58:22.623Z,97121.34
2022-09-18T03:01:15.596Z,97120.75
2022-09-18T03:04:05.799Z,97126.28
2022-09-18T03:07:16.021Z,97132.16
2022-09-18T03:10:05.537Z,97121.38
2022-09-18T03:13:01.522Z,97130.31
2022-09-18T03:15:50.101Z,97125.56
2022-09-18T03:18:46.252Z,97123.19
2022-09-18T03:21:34.847Z,97120.91
2022-09-18T03:24:25.783Z,97121.25
2022-09-18T03:27:23.573Z,97123.38
2022-09-18T03:30:15.643Z,97131.94
2022-09-18T03:33:04.233Z,97130.63
2022-09-18T03:35:59.802Z,97131.06
2022-09-18T03:38:48.382Z,97137.28
2022-09-18T03:41:42.981Z,97134.91
2022-09-18T03:44:31.321Z,97139.34
2022-09-18T03:47:23.070Z,97142.28
2022-09-18T03:50:11.873Z,97142.81
2022-09-18T03:53:09.584Z,97139.59
2022-09-18T03:56:04.040Z,97145.00
2022-09-18T03:59:24.885Z,97141.41
2022-09-18T04:02:29.315Z,97141.59
2022-09-18T04:05:36.258Z,97151.81
2022-09-18T04:08:43.250Z,97157.66
2022-09-18T04:11:45.646Z,97147.19
2022-09-18T04:14:34.066Z,97153.59
2022-09-18T04:17:29.772Z,97160.13
2022-09-18T04:20:19.041Z,97161.09
2022-09-18T04:23:07.795Z,97161.22
2022-09-18T04:26:09.431Z,97158.22
2022-09-18T04:29:02.761Z,97166.56
2022-09-18T04:31:52.160Z,97165.84
2022-09-18T04:34:44.436Z,97176.84
2022-09-18T04:37:33.188Z,97182.31
2022-09-18T04:40:23.314Z,97163.97
2022-09-18T04:43:12.798Z,97180.94
2022-09-18T04:46:02.207Z,97174.53
2022-09-18T04:48:51.479Z,97178.72
2022-09-18T04:51:45.990Z,97181.06
2022-09-18T04:54:37.720Z,97172.84
2022-09-18T04:57:32.159Z,97173.69
2022-09-18T05:00:21.062Z,97189.75
2022-09-18T05:03:10.306Z,97184.00
2022-09-18T05:06:01.004Z,97175.81
2022-09-18T05:08:50.952Z,97182.97
2022-09-18T05:11:40.702Z,97185.84
2022-09-18T05:14:29.228Z,97185.69
2022-09-18T05:17:22.277Z,97189.94
2022-09-18T05:20:20.993Z,97181.25
2022-09-18T05:23:10.026Z,97197.47
2022-09-18T05:25:59.905Z,97193.38
2022-09-18T05:28:57.075Z,97188.22
2022-09-18T05:31:45.643Z,97197.44
2022-09-18T05:34:36.395Z,97195.44
2022-09-18T05:37:30.616Z,97202.16
2022-09-18T05:40:19.241Z,97195.84
2022-09-18T05:43:15.490Z,97198.69
2022-09-18T05:46:04.351Z,97202.97
2022-09-18T05:49:01.719Z,97200.19
2022-09-18T05:51:58.987Z,97198.13
2022-09-18T05:54:50.525Z,97201.78
2022-09-18T05:57:47.529Z,97206.97
2022-09-18T06:00:37.356Z,97217.03
2022-09-18T06:03:32.145Z,97199.91
2022-09-18T06:06:28.445Z,97205.59
2022-09-18T06:09:16.913Z,97206.72
2022-09-18T06:12:11.619Z,97218.31
2022-09-18T06:15:00.343Z,97212.16
2022-09-18T06:17:56.918Z,97206.97
2022-09-18T06:20:52.635Z,97198.97
2022-09-18T06:23:43.252Z,97203.44
2022-09-18T06:26:45.998Z,97216.59
2022-09-18T06:29:35.077Z,97221.66
2022-09-18T06:32:36.146Z,97220.78
2022-09-18T06:35:33.989Z,97221.41
2022-09-18T06:38:22.500Z,97236.91
2022-09-18T06:41:13.032Z,97216.31
2022-09-18T06:44:09.820Z,97219.19
2022-09-18T06:47:03.817Z,97227.06
2022-09-18T06:50:00.253Z,97219.16
2022-09-18T06:53:02.969Z,97235.34
2022-09-18T06:55:54.640Z,97211.91
2022-09-18T06:58:53.165Z,97228.88
2022-09-18T07:01:42.236Z,97224.88
2022-09-18T07:04:40.069Z,97239.38
2022-09-18T07:07:34.888Z,97223.44
2022-09-18T07:10:25.572Z,97225.38
2022-09-18T07:13:13.976Z,97244.72
2022-09-18T07:16:07.158Z,97248.50
2022-09-18T07:19:01.670Z,97235.56
2022-09-18T07:21:53.290Z,97232.88
2022-09-18T07:24:41.616Z,97242.56
2022-09-18T07:27:40.840Z,97246.63
2022-09-18T07:30:29.460Z,97239.47
2022-09-18T07:33:21.112Z,97237.88
2022-09-18T07:36:16.628Z,97247.16
2022-09-18T07:39:05.616Z,97246.16
2022-09-18T07:42:09.832Z,97231.19
2022-09-18T07:44:59.837Z,97235.69
2022-09-18T07:47:48.240Z,97237.44
2022-09-18T07:50:36.888Z,97225.69
2022-09-18T07:53:34.348Z,97238.66
2022-09-18T07:56:23.443Z,97234.19
2022-09-18T07:59:20.884Z,97259.50
2022-09-18T08:02:16.697Z,97251.41
2022-09-18T08:05:05.676Z,97251.47
2022-09-18T08:08:05.281Z,97257.94
2022-09-18T08:11:13.901Z,97255.88
2022-09-18T08:14:07.450Z,97238.97
2022-09-18T08:17:00.352Z,97245.00
2022-09-18T08:20:01.886Z,97247.72
2022-09-18T08:23:13.796Z,97239.47
2022-09-18T08:26:09.787Z,97244.47
2022-09-18T08:28:58.855Z,97257.66
2022-09-18T08:31:53.756Z,97262.50
2022-09-18T08:34:43.734Z,97231.44
2022-09-18T08:37:37.250Z,97233.97
2022-09-18T08:40:58.040Z,97250.00
2022-09-18T08:43:57.356Z,97241.16
2022-09-18T08:46:51.829Z,97239.72
2022-09-18T08:49:46.536Z,97231.44
2022-09-18T08:52:44.351Z,97240.00
2022-09-18T08:55:49.898Z,97237.47
2022-09-18T08:58:59.547Z,97242.47
2022-09-18T09:01:57.244Z,97237.19
2022-09-18T09:04:47.491Z,97256.22
2022-09-18T09:08:15.848Z,97236.47
2022-09-18T09:11:13.560Z,97259.25
2022-09-18T09:14:34.451Z,97229.63
2022-09-18T09:17:40.890Z,97241.66
2022-09-18T09:20:45.641Z,97247.72
2022-09-18T09:23:51.562Z,97231.69
2022-09-18T09:26:57.384Z,97234.47
2022-09-18T09:30:22.396Z,97243.47
2022-09-18T09:33:36.687Z,97242.22
2022-09-18T09:37:02.005Z,97245.25
2022-09-18T09:39:56.779Z,97227.44
2022-09-18T09:42:51.609Z,97241.22
2022-09-18T09:45:46.137Z,97221.69
2022-09-18T09:48:42.751Z,97238.69
2022-09-18T09:51:40.685Z,97250.75
2022-09-18T09:54:29.190Z,97240.72
2022-09-18T09:57:34.077Z,97264.03
2022-09-18T10:00:24.933Z,97243.47
2022-09-18T10:03:42.495Z,97267.78
2022-09-18T10:06:50.377Z,97244.22
2022-09-18T10:09:47.407Z,97220.91
2022-09-18T10:12:46.447Z,97256.28
2022-09-18T10:15:40.785Z,97256.75
2022-09-18T10:18:36.375Z,97234.72
2022-09-18T10:21:28.409Z,97238.72
2022-09-18T10:24:23.660Z,97242.88
2022-09-18T10:27:16.562Z,97250.66
2022-09-18T10:30:12.945Z,97264.75
2022-09-18T10:33:32.805Z,97259.00
2022-09-18T10:36:28.310Z,97264.22
2022-09-18T10:39:19.897Z,97249.91
2022-09-18T10:42:17.789Z,97285.09
2022-09-18T10:45:21.757Z,97261.00
2022-09-18T10:48:15.705Z,97265.81
2022-09-18T10:51:06.456Z,97264.53
2022-09-18T10:54:16.162Z,97257.19
2022-09-18T10:57:29.337Z,97257.16
2022-09-18T11:00:49.681Z,97248.03
2022-09-18T11:03:43.838Z,97247.91
2022-09-18T11:06:39.440Z,97239.69
2022-09-18T11:09:42.872Z,97234.03
2022-09-18T11:12:35.179Z,97238.44
2022-09-18T11:15:33.700Z,97244.66
2022-09-18T11:18:23.722Z,97242.31
2022-09-18T11:21:19.084Z,97244.31
2022-09-18T11:24:19.576Z,97288.03
2022-09-18T11:27:20.750Z,97284.59
2022-09-18T11:30:16.505Z,97277.81
2022-09-18T11:33:20.769Z,97272.53
2022-09-18T11:36:13.093Z,97297.38
2022-09-18T11:39:03.174Z,97290.03
2022-09-18T11:41:56.773Z,97275.06
2022-09-18T11:44:46.131Z,97295.31
2022-09-18T11:47:42.014Z,97288.97
2022-09-18T11:50:36.288Z,97296.44
2022-09-18T11:53:29.601Z,97288.53
2022-09-18T11:56:32.590Z,97288.06
2022-09-18T11:59:30.740Z,97294.84
2022-09-18T12:02:28.261Z,97296.34
2022-09-18T12:05:24.465Z,97287.59
2022-09-18T12:08:19.427Z,97279.06
2022-09-18T12:11:20.131Z,97299.88
2022-09-18T12:14:17.699Z,97300.63
2022-09-18T12:17:26.062Z,97287.34
2022-09-18T12:20:22.852Z,97281.69
2022-09-18T12:23:14.866Z,97284.81
2022-09-18T12:26:21.387Z,97295.09
2022-09-18T12:29:26.731Z,97307.88
2022-09-18T12:32:32.772Z,97299.34
2022-09-18T12:35:33.297Z,97310.91
2022-09-18T12:38:46.652Z,97304.38
2022-09-18T12:41:48.987Z,97300.88
2022-09-18T12:44:54.162Z,97292.84
2022-09-18T12:48:01.858Z,97324.63
2022-09-18T12:51:02.413Z,97301.13
2022-09-18T12:54:14.306Z,97312.91
2022-09-18T12:57:19.273Z,97302.88
2022-09-18T13:00:11.658Z,97297.38
2022-09-18T13:03:09.841Z,97313.19
2022-09-18T13:06:02.800Z,97348.91
2022-09-18T13:08:57.910Z,97313.53
2022-09-18T13:11:51.283Z,97345.78
2022-09-18T13:14:44.393Z,97333.84
2022-09-18T13:17:37.597Z,97346.81
2022-09-18T13:20:32.642Z,97352.75
2022-09-18T13:23:24.138Z,97357.03
2022-09-18T13:26:16.014Z,97347.38
2022-09-18T13:29:05.479Z,97368.03
2022-09-18T13:31:54.907Z,97350.00
2022-09-18T13:34:50.104Z,97347.28
2022-09-18T13:37:39.980Z,97351.63
2022-09-18T13:40:35.936Z,97348.56
2022-09-18T13:43:39.741Z,97362.25
2022-09-18T13:46:39.692Z,97355.50
2022-09-18T13:49:32.148Z,97353.09
2022-09-18T13:52:46.110Z,97350.94
2022-09-18T13:55:48.450Z,97351.31
2022-09-18T13:58:47.980Z,97354.47
2022-09-18T14:02:23.023Z,97358.09
2022-09-18T14:05:30.892Z,97356.94
2022-09-18T14:08:39.430Z,97352.78
2022-09-18T14:11:33.916Z,97369.72
2022-09-18T14:14:25.861Z,97361.59
2022-09-18T14:17:16.358Z,97367.69
2022-09-18T14:20:18.749Z,97375.53
2022-09-18T14:23:41.447Z,97366.22
2022-09-18T14:26:56.783Z,97378.22
2022-09-18T14:29:48.549Z,97378.38
2022-09-18T14:32:37.130Z,97365.91
2022-09-18T14:35:44.916Z,97354.72
2022-09-18T14:38:35.861Z,97364.75
2022-09-18T14:41:28.681Z,97370.78
2022-09-18T14:44:18.664Z,97367.59
2022-09-18T14:47:22.317Z,97369.13
2022-09-18T14:50:27.595Z,97372.03
2022-09-18T14:53:21.959Z,97395.59
2022-09-18T14:56:13.739Z,97387.44
2022-09-18T14:59:06.045Z,97392.63
2022-09-18T15:02:12.933Z,97397.34
2022-09-18T15:05:03.752Z,97396.13
2022-09-18T15:07:56.133Z,97405.88
2022-09-18T15:10:49.445Z,97414.09
2022-09-18T15:13:39.026Z,97413.97
2022-09-18T15:16:36.545Z,97394.63
2022-09-18T15:19:27.195Z,97411.13
2022-09-18T15:22:22.458Z,97398.91
2022-09-18T15:25:13.589Z,97407.41
2022-09-18T15:28:07.806Z,97408.06
2022-09-18T15:31:03.650Z,97412.84
2022-09-18T15:33:58.528Z,97406.91
2022-09-18T15:36:56.606Z,97429.94
2022-09-18T15:39:48.328Z,97421.31
2022-09-18T15:42:40.029Z,97419.88
2022-09-18T15:45:30.675Z,97426.53
2022-09-18T15:48:37.017Z,97421.75
2022-09-18T15:51:28.003Z,97423.19
2022-09-18T15:54:28.869Z,97413.69
2022-09-18T15:57:17.331Z,97418.41
2022-09-18T16:00:19.376Z,97429.19
2022-09-18T16:03:09.744Z,97410.41
2022-09-18T16:06:08.802Z,97401.84
2022-09-18T16:08:58.353Z,97417.78
2022-09-18T16:11:48.565Z,97417.88
2022-09-18T16:14:42.878Z,97419.94
2022-09-18T16:17:55.128Z,97422.31
2022-09-18T16:20:45.448Z,97421.94
2022-09-18T16:23:36.474Z,97425.69
2022-09-18T16:26:29.782Z,97410.34
2022-09-18T16:29:22.530Z,97438.97
2022-09-18T16:32:12.789Z,97428.66
2022-09-18T16:35:01.586Z,97419.81
2022-09-18T16:37:51.097Z,97429.41
2022-09-18T16:40:48.947Z,97434.03
2022-09-18T16:43:37.405Z,97409.31
2022-09-18T16:46:33.968Z,97430.50
2022-09-18T16:49:26.456Z,97431.00
2022-09-18T16:52:15.188Z,97429.44
2022-09-18T16:55:10.878Z,97426.88
2022-09-18T16:57:59.988Z,97435.34
2022-09-18T17:00:54.450Z,97430.41
2022-09-18T17:03:44.493Z,97427.06
2022-09-18T17:06:39.487Z,97429.56
2022-09-18T17:09:28.185Z,97419.94
2022-09-18T17:12:23.893Z,97424.94
2022-09-18T17:15:12.346Z,97435.09
2022-09-18T17:18:06.972Z,97440.50
2022-09-18T17:20:57.133Z,97450.28
2022-09-18T17:23:51.962Z,97448.06
2022-09-18T17:26:42.268Z,97446.50
2022-09-18T17:29:36.720Z,97452.06
2022-09-18T17:32:25.073Z,97451.16
2022-09-18T17:35:19.572Z,97457.84
2022-09-18T17:38:09.304Z,97467.03
2022-09-18T17:41:06.517Z,97457.53
2022-09-18T17:43:55.321Z,97465.91
2022-09-18T17:46:52.707Z,97468.19
2022-09-18T17:49:41.274Z,97464.97
2022-09-18T17:52:38.752Z,97473.94
2022-09-18T17:55:28.629Z,97482.78
2022-09-18T17:58:17.181Z,97493.22
2022-09-18T18:01:16.950Z,97487.66
2022-09-18T18:04:05.828Z,97489.63
2022-09-18T18:06:54.301Z,97482.03
2022-09-18T18:09:42.611Z,97486.94
2022-09-18T18:12:41.874Z,97488.47
2022-09-18T18:15:30.402Z,97480.06
2022-09-18T18:18:28.759Z,97491.75
2022-09-18T18:21:17.577Z,97482.31
2022-09-18T18:24:09.171Z,97482.91
2022-09-18T18:26:58.060Z,97485.28
2022-09-18T18:29:57.225Z,97487.75
2022-09-18T18:32:45.711Z,97477.91
2022-09-18T18:35:36.889Z,97480.91
2022-09-18T18:38:25.519Z,97477.13
2022-09-18T18:41:25.047Z,97473.56
2022-09-18T18:44:13.471Z,97476.72
2022-09-18T18:47:03.238Z,97459.84
2022-09-18T18:49:54.269Z,97472.44
2022-09-18T18:52:43.322Z,97464.78
2022-09-18T18:55:31.686Z,97472.91
2022-09-18T18:58:20.485Z,97468.56
2022-09-18T19:01:19.462Z,97471.59
2022-09-18T19:04:11.373Z,97492.78
2022-09-18T19:06:59.727Z,97493.06
2022-09-18T19:09:54.213Z,97489.34
2022-09-18T19:12:42.594Z,97486.34
2022-09-18T19:15:38.529Z,97468.38
2022-09-18T19:18:26.955Z,97475.13
2022-09-18T19:21:23.311Z,97478.84
2022-09-18T19:24:13.377Z,97484.19
2022-09-18T19:27:08.149Z,97479.09
2022-09-18T19:29:56.537Z,97477.19
2022-09-18T19:32:54.611Z,97476.84
2022-09-18T19:35:42.985Z,97477.88
2022-09-18T19:38:38.709Z,97470.69
2022-09-18T19:41:33.621Z,97472.53
2022-09-18T19:44:28.062Z,97476.00
2022-09-18T19:47:21.666Z,97461.25
2022-09-18T19:50:18.866Z,97479.19
2022-09-18T19:53:07.542Z,97476.41
2022-09-18T19:56:18.447Z,97465.94
2022-09-18T19:59:16.652Z,97467.69
2022-09-18T20:02:13.317Z,97465.25
2022-09-18T20:05:02.142Z,97472.78
2022-09-18T20:07:56.710Z,97468.31
2022-09-18T20:10:45.103Z,97467.78
2022-09-18T20:13:41.189Z,97474.06
2022-09-18T20:16:29.702Z,97464.41
2022-09-18T20:19:24.842Z,97457.19
2022-09-18T20:22:13.206Z,97467.44
2022-09-18T20:25:05.280Z,97469.63
2022-09-18T20:27:53.643Z,97465.09
2022-09-18T20:30:43.520Z,97460.75
2022-09-18T20:33:32.005Z,97461.78
2022-09-18T20:36:20.336Z,97471.03
2022-09-18T20:39:09.201Z,97463.94
2022-09-18T20:42:00.733Z,97459.28
2022-09-18T20:44:49.172Z,97456.03
2022-09-18T20:47:39.119Z,97459.16
2022-09-18T20:50:28.050Z,97460.28
2022-09-18T20:53:19.249Z,97462.88
2022-09-18T20:56:08.201Z,97462.78
2022-09-18T20:59:05.554Z,97455.56
2022-09-18T21:01:53.890Z,97457.94
2022-09-18T21:04:47.103Z,97447.13
2022-09-18T21:07:36.062Z,97448.16
2022-09-18T21:10:33.833Z,97440.34
2022-09-18T21:13:22.591Z,97444.16
2022-09-18T21:16:10.983Z,97441.72
2022-09-18T21:19:06.835Z,97453.13
2022-09-18T21:21:57.177Z,97456.50
2022-09-18T21:24:46.403Z,97445.97
2022-09-18T21:27:34.778Z,97443.16
2022-09-18T21:30:26.312Z,97445.06
2022-09-18T21:33:15.960Z,97433.34
2022-09-18T21:36:10.682Z,97429.22
2022-09-18T21:39:00.870Z,97429.00
2022-09-18T21:41:55.949Z,97429.78
2022-09-18T21:44:45.782Z,97433.44
2022-09-18T21:47:34.183Z,97420.06
2022-09-18T21:50:22.928Z,97422.06
2022-09-18T21:53:11.488Z,97425.31
2022-09-18T21:56:02.533Z,97425.66
2022-09-18T21:58:51.060Z,97426.31
2022-09-18T22:01:46.938Z,97414.63
2022-09-18T22:04:35.562Z,97416.50
2022-09-18T22:07:29.953Z,97421.41
2022-09-18T22:10:18.452Z,97416.06
2022-09-18T22:13:14.247Z,97420.25
2022-09-18T22:16:03.282Z,97419.94
2022-09-18T22:18:58.094Z,97412.72
2022-09-18T22:21:48.107Z,97414.16
2022-09-18T22:24:42.219Z,97415.00
2022-09-18T22:27:30.605Z,97407.59
2022-09-18T22:30:27.033Z,97409.59
2022-09-18T22:33:15.324Z,97417.16
2022-09-18T22:36:09.781Z,97409.56
2022-09-18T22:38:58.035Z,97402.28
2022-09-18T22:41:52.618Z,97402.09
2022-09-18T22:44:40.895Z,97415.84
2022-09-18T22:47:31.211Z,97410.97
2022-09-18T22:50:19.493Z,97415.56
2022-09-18T22:53:14.063Z,97413.78
2022-09-18T22:56:04.396Z,97396.53
2022-09-18T22:58:54.341Z,97402.41
2022-09-18T23:01:48.974Z,97402.47
2022-09-18T23:04:38.700Z,97400.47
2022-09-18T23:07:36.000Z,97400.13
2022-09-18T23:10:24.426Z,97381.03
2022-09-18T23:13:24.792Z,97381.59
2022-09-18T23:16:14.113Z,97378.72
2022-09-18T23:19:16.522Z,97375.66
2022-09-18T23:22:10.050Z,97381.97
2022-09-18T23:24:58.480Z,97371.94
2022-09-18T23:27:53.752Z,97371.19
2022-09-18T23:30:42.064Z,97368.47
2022-09-18T23:33:36.765Z,97371.63
2022-09-18T23:36:27.043Z,97370.16
2022-09-18T23:39:24.549Z,97373.53
2022-09-18T23:42:12.868Z,97369.59
2022-09-18T23:45:08.312Z,97374.06
2022-09-18T23:47:56.639Z,97366.25
2022-09-18T23:50:44.881Z,97370.13
2022-09-18T23:53:38.029Z,97364.75
2022-09-18T23:56:29.229Z,97369.25
2022-09-18T23:59:22.679Z,97361.78
